Radom Military Air Base Radom PL
ICAO: EPRA
IATA:
Category: Medium
Scheduled Services: No

Elevation: 584 ft
TransAlt. 6500 ft.

Airport Communications:
INFO:128.5

EPRA Zoom In..

If you have problems with the map follow the link
https://www.worldairports.se/pages/airport.php?
ICAO=EPRA

Runways:

(A) RW 07 length 6562 ft width 197 ft
---- / hdg 71

(B) RW 25 length 6562 ft width 197 ft
---- / hdg 251

Location; EPRA
Day. 05 / Time. 14.00 Zulu
* QNH: 1021
* Temperature: 03° c. 37.4°f.
* Wind from: 190° Speed 05 kn.
Dewpoint: -04° c.
Visibility: 10 km or more,
No clouds below 1,500 m.
No cumulonimbus, and no significant weather
fenomena in the aerodrome or its vicinity.

EPRA 051400Z 19005KT CAVOK 03/M04 Q1021


Wind From 190°
Speed 05 kn.

 
 
jpsmedia worldairports.se 2019   terms of use